sensor_id;sensor_type;location;lat;lon;timestamp;pressure;altitude;pressure_sealevel;temperature;humidity
41862;BME280;27537;57.134;-2.136;2023-03-15T00:00:56;100196.09;;;1.37;100.00
41862;BME280;27537;57.134;-2.136;2023-03-15T00:03:22;100211.66;;;1.29;100.00
41862;BME280;27537;57.134;-2.136;2023-03-15T00:05:52;100255.31;;;1.52;100.00
41862;BME280;27537;57.134;-2.136;2023-03-15T00:08:20;100229.72;;;1.28;100.00
41862;BME280;27537;57.134;-2.136;2023-03-15T00:10:49;100210.03;;;1.13;100.00
41862;BME280;27537;57.134;-2.136;2023-03-15T00:13:16;100242.59;;;1.29;100.00
41862;BME280;27537;57.134;-2.136;2023-03-15T00:15:46;100275.09;;;1.54;100.00
41862;BME280;27537;57.134;-2.136;2023-03-15T00:18:14;100238.41;;;1.16;100.00
41862;BME280;27537;57.134;-2.136;2023-03-15T00:20:41;100250.41;;;1.19;100.00
41862;BME280;27537;57.134;-2.136;2023-03-15T00:23:08;100281.31;;;1.28;100.00
41862;BME280;27537;57.134;-2.136;2023-03-15T00:25:35;100266.75;;;1.18;100.00
41862;BME280;27537;57.134;-2.136;2023-03-15T00:28:02;100271.16;;;0.95;100.00
41862;BME280;27537;57.134;-2.136;2023-03-15T00:30:29;100247.13;;;0.92;100.00
41862;BME280;27537;57.134;-2.136;2023-03-15T00:32:55;100270.31;;;1.00;100.00
41862;BME280;27537;57.134;-2.136;2023-03-15T00:35:22;100254.84;;;0.98;100.00
41862;BME280;27537;57.134;-2.136;2023-03-15T00:37:54;100285.72;;;1.07;100.00
41862;BME280;27537;57.134;-2.136;2023-03-15T00:40:22;100283.16;;;1.06;100.00
41862;BME280;27537;57.134;-2.136;2023-03-15T00:42:50;100289.19;;;1.00;100.00
41862;BME280;27537;57.134;-2.136;2023-03-15T00:45:18;100287.44;;;1.07;100.00
41862;BME280;27537;57.134;-2.136;2023-03-15T00:47:49;100264.38;;;0.87;100.00
41862;BME280;27537;57.134;-2.136;2023-03-15T00:50:17;100287.41;;;1.13;100.00
41862;BME280;27537;57.134;-2.136;2023-03-15T00:52:44;100260.00;;;1.00;100.00
41862;BME280;27537;57.134;-2.136;2023-03-15T00:55:13;100297.69;;;1.19;100.00
41862;BME280;27537;57.134;-2.136;2023-03-15T00:57:42;100289.94;;;1.21;100.00
41862;BME280;27537;57.134;-2.136;2023-03-15T01:00:12;100306.19;;;1.35;100.00
41862;BME280;27537;57.134;-2.136;2023-03-15T01:02:40;100265.16;;;0.98;100.00
41862;BME280;27537;57.134;-2.136;2023-03-15T01:05:08;100308.69;;;1.47;100.00
41862;BME280;27537;57.134;-2.136;2023-03-15T01:07:35;100280.44;;;1.27;100.00
41862;BME280;27537;57.134;-2.136;2023-03-15T01:10:04;100319.88;;;1.45;100.00
41862;BME280;27537;57.134;-2.136;2023-03-15T01:12:32;100323.34;;;1.39;100.00
41862;BME280;27537;57.134;-2.136;2023-03-15T01:15:00;100330.16;;;1.51;100.00
41862;BME280;27537;57.134;-2.136;2023-03-15T01:17:27;100302.03;;;1.14;100.00
41862;BME280;27537;57.134;-2.136;2023-03-15T01:19:54;100296.94;;;1.00;100.00
41862;BME280;27537;57.134;-2.136;2023-03-15T01:22:21;100291.84;;;0.86;100.00
41862;BME280;27537;57.134;-2.136;2023-03-15T01:24:48;100299.56;;;0.85;100.00
41862;BME280;27537;57.134;-2.136;2023-03-15T01:27:14;100295.38;;;0.64;100.00
41862;BME280;27537;57.134;-2.136;2023-03-15T01:29:41;100327.97;;;0.75;100.00
41862;BME280;27537;57.134;-2.136;2023-03-15T01:32:08;100316.84;;;0.67;100.00
41862;BME280;27537;57.134;-2.136;2023-03-15T01:34:35;100265.47;;;0.26;100.00
41862;BME280;27537;57.134;-2.136;2023-03-15T01:37:03;100316.88;;;0.63;100.00
41862;BME280;27537;57.134;-2.136;2023-03-15T01:39:30;100304.03;;;0.47;100.00
41862;BME280;27537;57.134;-2.136;2023-03-15T01:41:57;100337.44;;;0.67;100.00
41862;BME280;27537;57.134;-2.136;2023-03-15T01:44:47;100328.88;;;0.64;100.00
41862;BME280;27537;57.134;-2.136;2023-03-15T01:47:15;100339.16;;;0.68;100.00
41862;BME280;27537;57.134;-2.136;2023-03-15T01:49:42;100293.75;;;0.36;100.00
41862;BME280;27537;57.134;-2.136;2023-03-15T01:52:20;100300.63;;;0.37;100.00
41862;BME280;27537;57.134;-2.136;2023-03-15T01:54:59;100310.91;;;0.44;100.00
41862;BME280;27537;57.134;-2.136;2023-03-15T01:57:37;100295.50;;;0.37;100.00
41862;BME280;27537;57.134;-2.136;2023-03-15T02:00:09;100316.94;;;0.38;100.00
41862;BME280;27537;57.134;-2.136;2023-03-15T02:02:51;100288.66;;;0.18;100.00
41862;BME280;27537;57.134;-2.136;2023-03-15T02:05:40;100319.50;;;0.32;100.00
41862;BME280;27537;57.134;-2.136;2023-03-15T02:08:14;100328.06;;;0.51;100.00
41862;BME280;27537;57.134;-2.136;2023-03-15T02:10:43;100328.94;;;0.41;100.00
41862;BME280;27537;57.134;-2.136;2023-03-15T02:13:13;100329.81;;;0.41;100.00
41862;BME280;27537;57.134;-2.136;2023-03-15T02:15:41;100310.09;;;0.25;100.00
41862;BME280;27537;57.134;-2.136;2023-03-15T02:18:13;100274.13;;;-0.03;100.00
41862;BME280;27537;57.134;-2.136;2023-03-15T02:23:14;100296.34;;;0.38;100.00
41862;BME280;27537;57.134;-2.136;2023-03-15T02:28:13;100262.06;;;0.10;100.00
41862;BME280;27537;57.134;-2.136;2023-03-15T02:30:42;100289.50;;;0.25;100.00
41862;BME280;27537;57.134;-2.136;2023-03-15T02:35:43;100304.06;;;0.38;100.00
41862;BME280;27537;57.134;-2.136;2023-03-15T02:38:09;100310.06;;;0.45;100.00
41862;BME280;27537;57.134;-2.136;2023-03-15T02:40:36;100235.47;;;0.02;100.00
41862;BME280;27537;57.134;-2.136;2023-03-15T02:43:06;100280.88;;;0.32;100.00
41862;BME280;27537;57.134;-2.136;2023-03-15T02:45:34;100275.75;;;0.30;100.00
41862;BME280;27537;57.134;-2.136;2023-03-15T02:48:04;100268.94;;;0.09;100.00
41862;BME280;27537;57.134;-2.136;2023-03-15T02:50:32;100308.41;;;0.14;100.00
41862;BME280;27537;57.134;-2.136;2023-03-15T02:52:58;100286.94;;;0.12;100.00
41862;BME280;27537;57.134;-2.136;2023-03-15T02:55:25;100320.41;;;0.32;100.00
41862;BME280;27537;57.134;-2.136;2023-03-15T02:57:52;100271.56;;;0.00;100.00
41862;BME280;27537;57.134;-2.136;2023-03-15T03:00:19;100270.66;;;0.03;100.00
41862;BME280;27537;57.134;-2.136;2023-03-15T03:02:47;100315.22;;;0.40;100.00
41862;BME280;27537;57.134;-2.136;2023-03-15T03:05:15;100257.81;;;0.06;100.00
41862;BME280;27537;57.134;-2.136;2023-03-15T03:07:42;100301.50;;;0.43;100.00
41862;BME280;27537;57.134;-2.136;2023-03-15T03:10:14;100233.78;;;-0.01;100.00
41862;BME280;27537;57.134;-2.136;2023-03-15T03:12:41;100269.78;;;0.24;100.00
41862;BME280;27537;57.134;-2.136;2023-03-15T03:15:09;100252.63;;;0.16;100.00
41862;BME280;27537;57.134;-2.136;2023-03-15T03:17:36;100277.44;;;0.41;100.00
41862;BME280;27537;57.134;-2.136;2023-03-15T03:20:08;100287.72;;;0.44;100.00
41862;BME280;27537;57.134;-2.136;2023-03-15T03:22:36;100251.75;;;0.25;100.00
41862;BME280;27537;57.134;-2.136;2023-03-15T03:25:05;100284.31;;;0.40;100.00
41862;BME280;27537;57.134;-2.136;2023-03-15T03:27:32;100294.56;;;0.54;100.00
41862;BME280;27537;57.134;-2.136;2023-03-15T03:30:07;100266.22;;;0.48;100.00
41862;BME280;27537;57.134;-2.136;2023-03-15T03:32:34;100256.84;;;0.31;100.00
41862;BME280;27537;57.134;-2.136;2023-03-15T03:35:01;100250.84;;;0.34;100.00
41862;BME280;27537;57.134;-2.136;2023-03-15T03:37:28;100245.72;;;0.31;100.00
41862;BME280;27537;57.134;-2.136;2023-03-15T03:39:56;100236.25;;;0.34;100.00
41862;BME280;27537;57.134;-2.136;2023-03-15T03:42:24;100261.06;;;0.52;100.00
41862;BME280;27537;57.134;-2.136;2023-03-15T03:44:51;100278.25;;;0.53;100.00
41862;BME280;27537;57.134;-2.136;2023-03-15T03:47:20;100247.41;;;0.36;100.00
41862;BME280;27537;57.134;-2.136;2023-03-15T03:49:46;100249.09;;;0.41;100.00
41862;BME280;27537;57.134;-2.136;2023-03-15T03:52:13;100269.69;;;0.45;100.00
41862;BME280;27537;57.134;-2.136;2023-03-15T03:54:40;100243.97;;;0.28;100.00
41862;BME280;27537;57.134;-2.136;2023-03-15T03:57:09;100269.69;;;0.44;100.00
41862;BME280;27537;57.134;-2.136;2023-03-15T03:59:36;100198.63;;;-0.07;100.00
41862;BME280;27537;57.134;-2.136;2023-03-15T04:02:03;100261.16;;;0.26;100.00
41862;BME280;27537;57.134;-2.136;2023-03-15T04:04:30;100254.31;;;0.24;100.00
41862;BME280;27537;57.134;-2.136;2023-03-15T04:06:57;100248.31;;;0.20;100.00
41862;BME280;27537;57.134;-2.136;2023-03-15T04:09:23;100288.59;;;0.32;100.00
41862;BME280;27537;57.134;-2.136;2023-03-15T04:11:50;100250.06;;;0.10;100.00
41862;BME280;27537;57.134;-2.136;2023-03-15T04:14:17;100292.91;;;0.37;100.00
41862;BME280;27537;57.134;-2.136;2023-03-15T04:16:44;100269.81;;;0.14;100.00
41862;BME280;27537;57.134;-2.136;2023-03-15T04:19:10;100264.63;;;0.17;100.00
41862;BME280;27537;57.134;-2.136;2023-03-15T04:21:38;100232.91;;;0.02;100.00
41862;BME280;27537;57.134;-2.136;2023-03-15T04:24:05;100265.50;;;0.12;100.00
41862;BME280;27537;57.134;-2.136;2023-03-15T04:26:32;100243.22;;;0.03;100.00
41862;BME280;27537;57.134;-2.136;2023-03-15T04:29:00;100290.34;;;0.36;100.00
41862;BME280;27537;57.134;-2.136;2023-03-15T04:31:26;100286.06;;;0.24;100.00
41862;BME280;27537;57.134;-2.136;2023-03-15T04:33:54;100257.81;;;0.06;100.00
41862;BME280;27537;57.134;-2.136;2023-03-15T04:36:22;100243.25;;;-0.17;100.00
41862;BME280;27537;57.134;-2.136;2023-03-15T04:38:49;100293.78;;;0.27;100.00
41862;BME280;27537;57.134;-2.136;2023-03-15T04:41:16;100294.66;;;0.20;100.00
41862;BME280;27537;57.134;-2.136;2023-03-15T04:43:43;100303.22;;;0.34;100.00
41862;BME280;27537;57.134;-2.136;2023-03-15T04:46:10;100289.53;;;0.18;100.00
41862;BME280;27537;57.134;-2.136;2023-03-15T04:48:37;100268.94;;;0.08;100.00
41862;BME280;27537;57.134;-2.136;2023-03-15T04:51:04;100252.69;;;-0.07;100.00
41862;BME280;27537;57.134;-2.136;2023-03-15T04:53:31;100299.81;;;0.22;100.00
41862;BME280;27537;57.134;-2.136;2023-03-15T04:55:58;100315.25;;;0.25;100.00
41862;BME280;27537;57.134;-2.136;2023-03-15T04:58:25;100301.53;;;0.20;100.00
41862;BME280;27537;57.134;-2.136;2023-03-15T05:00:52;100296.38;;;0.29;100.00
41862;BME280;27537;57.134;-2.136;2023-03-15T05:03:19;100289.50;;;0.15;100.00
41862;BME280;27537;57.134;-2.136;2023-03-15T05:05:46;100247.53;;;-0.13;100.00
41862;BME280;27537;57.134;-2.136;2023-03-15T05:08:13;100306.66;;;0.23;100.00
41862;BME280;27537;57.134;-2.136;2023-03-15T05:10:40;100278.41;;;0.07;100.00
41862;BME280;27537;57.134;-2.136;2023-03-15T05:13:07;100300.66;;;0.17;100.00
41862;BME280;27537;57.134;-2.136;2023-03-15T05:15:33;100267.25;;;0.04;100.00
41862;BME280;27537;57.134;-2.136;2023-03-15T05:18:00;100301.53;;;0.30;100.00
41862;BME280;27537;57.134;-2.136;2023-03-15T05:20:27;100270.66;;;0.03;100.00
41862;BME280;27537;57.134;-2.136;2023-03-15T05:22:54;100312.66;;;0.32;100.00
41862;BME280;27537;57.134;-2.136;2023-03-15T05:25:20;100276.69;;;0.00;100.00
41862;BME280;27537;57.134;-2.136;2023-03-15T05:27:47;100322.09;;;0.40;100.00
41862;BME280;27537;57.134;-2.136;2023-03-15T05:30:14;100315.22;;;0.46;100.00
41862;BME280;27537;57.134;-2.136;2023-03-15T05:32:41;100288.63;;;0.30;100.00
41862;BME280;27537;57.134;-2.136;2023-03-15T05:35:11;100300.63;;;0.37;100.00
41862;BME280;27537;57.134;-2.136;2023-03-15T05:37:38;100315.19;;;0.49;100.00
41862;BME280;27537;57.134;-2.136;2023-03-15T05:40:05;100265.50;;;0.15;100.00
41862;BME280;27537;57.134;-2.136;2023-03-15T05:42:35;100286.09;;;0.20;100.00
41862;BME280;27537;57.134;-2.136;2023-03-15T05:45:03;100319.50;;;0.35;100.00
41862;BME280;27537;57.134;-2.136;2023-03-15T05:47:29;100283.56;;;-0.05;100.00
41862;BME280;27537;57.134;-2.136;2023-03-15T05:49:59;100242.41;;;-0.31;100.00
41862;BME280;27537;57.134;-2.136;2023-03-15T05:52:26;100327.25;;;0.32;100.00
41862;BME280;27537;57.134;-2.136;2023-03-15T05:54:52;100331.53;;;0.33;100.00
41862;BME280;27537;57.134;-2.136;2023-03-15T05:57:19;100326.41;;;0.17;100.00
41862;BME280;27537;57.134;-2.136;2023-03-15T05:59:46;100328.16;;;0.05;100.00
41862;BME280;27537;57.134;-2.136;2023-03-15T06:02:12;100323.00;;;-0.23;100.00
41862;BME280;27537;57.134;-2.136;2023-03-15T06:04:39;100356.47;;;-0.17;100.00
41862;BME280;27537;57.134;-2.136;2023-03-15T06:07:07;100352.19;;;-0.09;100.00
41862;BME280;27537;57.134;-2.136;2023-03-15T06:09:33;100330.75;;;-0.37;100.00
41862;BME280;27537;57.134;-2.136;2023-03-15T06:12:00;100341.00;;;-0.46;100.00
41862;BME280;27537;57.134;-2.136;2023-03-15T06:14:27;100359.03;;;-0.29;100.00
41862;BME280;27537;57.134;-2.136;2023-03-15T06:16:54;100317.88;;;-0.48;100.00
41862;BME280;27537;57.134;-2.136;2023-03-15T06:19:21;100330.72;;;-0.51;100.00
41862;BME280;27537;57.134;-2.136;2023-03-15T06:21:48;100393.38;;;-0.01;100.00
41862;BME280;27537;57.134;-2.136;2023-03-15T06:24:15;100326.44;;;-0.46;100.00
41862;BME280;27537;57.134;-2.136;2023-03-15T06:26:42;100370.22;;;-0.10;100.00
41862;BME280;27537;57.134;-2.136;2023-03-15T06:29:08;100356.47;;;-0.17;100.00
41862;BME280;27537;57.134;-2.136;2023-03-15T06:31:36;100376.22;;;0.01;100.00
41862;BME280;27537;57.134;-2.136;2023-03-15T06:34:02;100367.63;;;0.05;100.00
41862;BME280;27537;57.134;-2.136;2023-03-15T06:36:29;100388.19;;;0.28;100.00
41862;BME280;27537;57.134;-2.136;2023-03-15T06:38:57;100374.50;;;0.20;100.00
41862;BME280;27537;57.134;-2.136;2023-03-15T06:41:23;100382.19;;;0.31;100.00
41862;BME280;27537;57.134;-2.136;2023-03-15T06:43:50;100388.22;;;0.34;100.00
41862;BME280;27537;57.134;-2.136;2023-03-15T06:46:17;100371.91;;;0.29;100.00
41862;BME280;27537;57.134;-2.136;2023-03-15T06:48:44;100374.47;;;0.28;100.00
41862;BME280;27537;57.134;-2.136;2023-03-15T06:51:10;100362.47;;;0.19;100.00
41862;BME280;27537;57.134;-2.136;2023-03-15T06:53:37;100343.59;;;0.06;100.00
41862;BME280;27537;57.134;-2.136;2023-03-15T06:56:04;100365.03;;;0.17;100.00
41862;BME280;27537;57.134;-2.136;2023-03-15T06:58:31;100381.38;;;0.18;100.00
41862;BME280;27537;57.134;-2.136;2023-03-15T07:00:58;100345.31;;;-0.11;100.00
41862;BME280;27537;57.134;-2.136;2023-03-15T07:03:24;100326.44;;;-0.26;100.00
41862;BME280;27537;57.134;-2.136;2023-03-15T07:05:51;100395.94;;;0.13;100.00
41862;BME280;27537;57.134;-2.136;2023-03-15T07:08:20;100404.53;;;0.13;100.00
41862;BME280;27537;57.134;-2.136;2023-03-15T07:10:47;100361.63;;;-0.08;100.00
41862;BME280;27537;57.134;-2.136;2023-03-15T07:13:17;100366.75;;;0.05;100.00
41862;BME280;27537;57.134;-2.136;2023-03-15T07:15:44;100355.63;;;-0.05;100.00
41862;BME280;27537;57.134;-2.136;2023-03-15T07:18:13;100309.31;;;-0.22;100.00
41862;BME280;27537;57.134;-2.136;2023-03-15T07:20:39;100355.63;;;0.03;100.00
41862;BME280;27537;57.134;-2.136;2023-03-15T07:23:06;100351.31;;;-0.08;100.00
41862;BME280;27537;57.134;-2.136;2023-03-15T07:25:33;100379.63;;;0.18;100.00
41862;BME280;27537;57.134;-2.136;2023-03-15T07:28:17;100406.22;;;0.51;100.00
41862;BME280;27537;57.134;-2.136;2023-03-15T07:31:00;100393.16;;;1.08;100.00
41862;BME280;27537;57.134;-2.136;2023-03-15T07:33:30;100397.13;;;1.66;100.00
41862;BME280;27537;57.134;-2.136;2023-03-15T07:35:57;100340.97;;;1.98;100.00
41862;BME280;27537;57.134;-2.136;2023-03-15T07:38:26;100410.69;;;2.91;100.00
41862;BME280;27537;57.134;-2.136;2023-03-15T07:40:55;100407.22;;;3.60;100.00
41862;BME280;27537;57.134;-2.136;2023-03-15T07:43:22;100392.72;;;4.07;100.00
41862;BME280;27537;57.134;-2.136;2023-03-15T07:45:49;100395.38;;;4.52;100.00
41862;BME280;27537;57.134;-2.136;2023-03-15T07:48:16;100404.56;;;4.70;100.00
41862;BME280;27537;57.134;-2.136;2023-03-15T07:50:44;100403.78;;;3.59;100.00
41862;BME280;27537;57.134;-2.136;2023-03-15T07:53:11;100411.50;;;2.96;100.00
41862;BME280;27537;57.134;-2.136;2023-03-15T07:55:38;100434.03;;;2.83;100.00
41862;BME280;27537;57.134;-2.136;2023-03-15T07:58:05;100433.47;;;2.55;100.00
41862;BME280;27537;57.134;-2.136;2023-03-15T08:00:31;100423.00;;;3.41;100.00
41862;BME280;27537;57.134;-2.136;2023-03-15T08:02:59;100414.34;;;4.03;100.00
41862;BME280;27537;57.134;-2.136;2023-03-15T08:05:26;100367.00;;;4.45;100.00
41862;BME280;27537;57.134;-2.136;2023-03-15T08:07:54;100378.59;;;4.72;98.86
41862;BME280;27537;57.134;-2.136;2023-03-15T08:10:22;100373.31;;;4.77;100.00
41862;BME280;27537;57.134;-2.136;2023-03-15T08:12:49;100363.34;;;5.00;100.00
41862;BME280;27537;57.134;-2.136;2023-03-15T08:15:16;100343.03;;;4.77;100.00
41862;BME280;27537;57.134;-2.136;2023-03-15T08:17:46;100392.66;;;5.46;93.74
41862;BME280;27537;57.134;-2.136;2023-03-15T08:20:14;100378.03;;;5.81;92.06
41862;BME280;27537;57.134;-2.136;2023-03-15T08:22:47;100414.41;;;5.81;88.27
41862;BME280;27537;57.134;-2.136;2023-03-15T08:25:16;100383.91;;;5.87;91.00
41862;BME280;27537;57.134;-2.136;2023-03-15T08:27:44;100377.63;;;5.98;86.48
41862;BME280;27537;57.134;-2.136;2023-03-15T08:30:13;100419.84;;;6.43;90.39
41862;BME280;27537;57.134;-2.136;2023-03-15T08:32:41;100406.16;;;6.35;83.22
41862;BME280;27537;57.134;-2.136;2023-03-15T08:35:09;100413.22;;;6.30;81.12
41862;BME280;27537;57.134;-2.136;2023-03-15T08:37:41;100394.75;;;6.41;80.64
41862;BME280;27537;57.134;-2.136;2023-03-15T08:40:14;100393.78;;;6.45;78.52
41862;BME280;27537;57.134;-2.136;2023-03-15T08:42:41;100346.94;;;6.12;77.52
41862;BME280;27537;57.134;-2.136;2023-03-15T08:45:08;100375.25;;;6.57;75.98
41862;BME280;27537;57.134;-2.136;2023-03-15T08:47:36;100400.47;;;6.87;75.64
41862;BME280;27537;57.134;-2.136;2023-03-15T08:50:04;100404.56;;;6.95;75.50
41862;BME280;27537;57.134;-2.136;2023-03-15T08:52:32;100397.88;;;7.18;77.41
41862;BME280;27537;57.134;-2.136;2023-03-15T08:54:59;100384.81;;;6.88;75.11
41862;BME280;27537;57.134;-2.136;2023-03-15T08:57:26;100416.75;;;6.95;74.59
41862;BME280;27537;57.134;-2.136;2023-03-15T08:59:54;100361.78;;;6.74;75.28
41862;BME280;27537;57.134;-2.136;2023-03-15T09:02:21;100380.50;;;6.56;73.52
41862;BME280;27537;57.134;-2.136;2023-03-15T09:04:49;100410.38;;;6.74;74.63
41862;BME280;27537;57.134;-2.136;2023-03-15T09:07:18;100375.19;;;6.26;72.88
41862;BME280;27537;57.134;-2.136;2023-03-15T09:09:47;100405.09;;;6.42;73.00
41862;BME280;27537;57.134;-2.136;2023-03-15T09:12:17;100412.59;;;6.55;75.76
41862;BME280;27537;57.134;-2.136;2023-03-15T09:14:44;100376.41;;;6.13;74.58
41862;BME280;27537;57.134;-2.136;2023-03-15T09:17:10;100342.34;;;5.87;73.25
41862;BME280;27537;57.134;-2.136;2023-03-15T09:19:37;100346.91;;;5.78;73.55
41862;BME280;27537;57.134;-2.136;2023-03-15T09:22:05;100411.91;;;6.14;73.33
41862;BME280;27537;57.134;-2.136;2023-03-15T09:24:49;100419.88;;;6.07;74.29
41862;BME280;27537;57.134;-2.136;2023-03-15T09:27:17;100415.84;;;5.54;74.14
41862;BME280;27537;57.134;-2.136;2023-03-15T09:29:44;100420.59;;;5.74;76.58
41862;BME280;27537;57.134;-2.136;2023-03-15T09:32:11;100395.75;;;5.23;74.38
41862;BME280;27537;57.134;-2.136;2023-03-15T09:34:38;100437.53;;;5.53;75.13
41862;BME280;27537;57.134;-2.136;2023-03-15T09:37:08;100393.78;;;5.34;75.50
41862;BME280;27537;57.134;-2.136;2023-03-15T09:39:34;100399.44;;;5.53;76.82
41862;BME280;27537;57.134;-2.136;2023-03-15T09:42:02;100406.47;;;5.48;76.60
41862;BME280;27537;57.134;-2.136;2023-03-15T09:52:45;100423.50;;;5.61;78.63
41862;BME280;27537;57.134;-2.136;2023-03-15T09:55:27;100415.78;;;5.57;79.35
41862;BME280;27537;57.134;-2.136;2023-03-15T09:58:09;100443.91;;;5.77;79.87
41862;BME280;27537;57.134;-2.136;2023-03-15T10:00:50;100430.38;;;5.62;79.56
41862;BME280;27537;57.134;-2.136;2023-03-15T10:03:48;100451.31;;;5.95;80.69
41862;BME280;27537;57.134;-2.136;2023-03-15T10:06:18;100452.19;;;5.96;79.03
41862;BME280;27537;57.134;-2.136;2023-03-15T10:08:46;100453.16;;;5.90;78.34
41862;BME280;27537;57.134;-2.136;2023-03-15T10:16:38;100457.03;;;6.11;79.69
41862;BME280;27537;57.134;-2.136;2023-03-15T10:21:42;100465.66;;;6.13;77.19
41862;BME280;27537;57.134;-2.136;2023-03-15T10:27:21;100456.03;;;6.17;77.81
41862;BME280;27537;57.134;-2.136;2023-03-15T10:29:52;100428.81;;;5.93;76.63
41862;BME280;27537;57.134;-2.136;2023-03-15T10:32:24;100453.78;;;6.01;75.32
41862;BME280;27537;57.134;-2.136;2023-03-15T10:34:55;100394.56;;;6.14;77.81
41862;BME280;27537;57.134;-2.136;2023-03-15T10:37:23;100442.22;;;6.49;76.40
41862;BME280;27537;57.134;-2.136;2023-03-15T10:39:56;100373.66;;;6.19;75.62
41862;BME280;27537;57.134;-2.136;2023-03-15T10:42:31;100407.25;;;6.61;76.19
41862;BME280;27537;57.134;-2.136;2023-03-15T10:45:20;100427.56;;;6.46;75.52
41862;BME280;27537;57.134;-2.136;2023-03-15T10:47:48;100427.56;;;6.46;75.18
41862;BME280;27537;57.134;-2.136;2023-03-15T10:50:26;100445.56;;;6.54;74.38
41862;BME280;27537;57.134;-2.136;2023-03-15T10:52:55;100419.53;;;6.56;74.69
41862;BME280;27537;57.134;-2.136;2023-03-15T10:55:34;100419.63;;;6.84;75.33
41862;BME280;27537;57.134;-2.136;2023-03-15T10:58:24;100424.22;;;7.07;75.83
41862;BME280;27537;57.134;-2.136;2023-03-15T11:01:21;100430.22;;;7.09;72.76
41862;BME280;27537;57.134;-2.136;2023-03-15T11:09:25;100398.03;;;7.41;69.32
41862;BME280;27537;57.134;-2.136;2023-03-15T11:12:01;100408.50;;;7.68;64.98
41862;BME280;27537;57.134;-2.136;2023-03-15T11:14:48;100416.44;;;8.20;65.65
41862;BME280;27537;57.134;-2.136;2023-03-15T11:17:22;100400.59;;;8.26;64.98
41862;BME280;27537;57.134;-2.136;2023-03-15T11:19:55;100427.81;;;8.17;62.42
41862;BME280;27537;57.134;-2.136;2023-03-15T11:22:22;100418.69;;;8.31;63.86
41862;BME280;27537;57.134;-2.136;2023-03-15T11:24:51;100422.47;;;8.22;62.32
41862;BME280;27537;57.134;-2.136;2023-03-15T11:27:20;100428.34;;;7.74;62.38
41862;BME280;27537;57.134;-2.136;2023-03-15T11:29:58;100401.59;;;7.39;62.21
41862;BME280;27537;57.134;-2.136;2023-03-15T11:32:30;100416.84;;;7.51;63.15
41862;BME280;27537;57.134;-2.136;2023-03-15T11:35:13;100410.53;;;7.30;63.36
41862;BME280;27537;57.134;-2.136;2023-03-15T11:37:56;100386.97;;;7.05;63.09
41862;BME280;27537;57.134;-2.136;2023-03-15T11:40:42;100413.09;;;7.62;64.63
41862;BME280;27537;57.134;-2.136;2023-03-15T11:43:32;100416.94;;;7.48;64.12
41862;BME280;27537;57.134;-2.136;2023-03-15T11:46:08;100398.53;;;7.54;66.07
41862;BME280;27537;57.134;-2.136;2023-03-15T11:48:43;100387.84;;;7.34;65.14
41862;BME280;27537;57.134;-2.136;2023-03-15T11:51:13;100389.56;;;7.35;64.50
41862;BME280;27537;57.134;-2.136;2023-03-15T11:56:28;100355.72;;;7.05;62.57
41862;BME280;27537;57.134;-2.136;2023-03-15T11:59:12;100357.28;;;7.11;63.27
41862;BME280;27537;57.134;-2.136;2023-03-15T12:01:50;100405.25;;;7.62;61.86
41862;BME280;27537;57.134;-2.136;2023-03-15T12:06:55;100406.88;;;7.66;59.75
41862;BME280;27537;57.134;-2.136;2023-03-15T12:12:33;100396.06;;;7.50;58.79
41862;BME280;27537;57.134;-2.136;2023-03-15T12:17:52;100392.78;;;7.43;56.82
41862;BME280;27537;57.134;-2.136;2023-03-15T12:20:26;100400.66;;;7.70;58.73
41862;BME280;27537;57.134;-2.136;2023-03-15T12:26:04;100382.06;;;7.52;59.51
41862;BME280;27537;57.134;-2.136;2023-03-15T12:28:35;100380.75;;;7.67;59.87
41862;BME280;27537;57.134;-2.136;2023-03-15T12:31:08;100349.88;;;7.55;59.84
41862;BME280;27537;57.134;-2.136;2023-03-15T12:36:23;100374.81;;;7.64;61.40
41862;BME280;27537;57.134;-2.136;2023-03-15T12:39:02;100373.47;;;7.20;60.96
41862;BME280;27537;57.134;-2.136;2023-03-15T12:41:49;100350.38;;;7.38;61.04
41862;BME280;27537;57.134;-2.136;2023-03-15T12:44:25;100367.13;;;7.59;62.18
41862;BME280;27537;57.134;-2.136;2023-03-15T12:46:53;100353.97;;;7.06;61.58
41862;BME280;27537;57.134;-2.136;2023-03-15T12:52:00;100321.13;;;7.30;67.31
41862;BME280;27537;57.134;-2.136;2023-03-15T12:54:40;100347.03;;;7.63;67.78
41862;BME280;27537;57.134;-2.136;2023-03-15T12:57:14;100353.00;;;7.38;67.56
41862;BME280;27537;57.134;-2.136;2023-03-15T12:59:49;100376.22;;;7.74;65.78
41862;BME280;27537;57.134;-2.136;2023-03-15T13:04:43;100322.06;;;7.55;64.41
41862;BME280;27537;57.134;-2.136;2023-03-15T13:07:55;100378.81;;;7.74;64.23
41862;BME280;27537;57.134;-2.136;2023-03-15T13:13:41;100368.06;;;7.56;65.91
41862;BME280;27537;57.134;-2.136;2023-03-15T13:24:47;100363.38;;;7.68;61.29
41862;BME280;27537;57.134;-2.136;2023-03-15T13:35:47;100352.56;;;7.23;62.00
41862;BME280;27537;57.134;-2.136;2023-03-15T13:38:33;100336.09;;;7.51;63.99
41862;BME280;27537;57.134;-2.136;2023-03-15T13:41:02;100348.34;;;7.19;64.47
41862;BME280;27537;57.134;-2.136;2023-03-15T13:43:36;100345.38;;;7.32;66.04
41862;BME280;27537;57.134;-2.136;2023-03-15T13:46:04;100314.72;;;7.40;67.16
41862;BME280;27537;57.134;-2.136;2023-03-15T13:48:33;100339.41;;;7.56;64.52
41862;BME280;27537;57.134;-2.136;2023-03-15T13:53:47;100280.06;;;7.65;64.76
41862;BME280;27537;57.134;-2.136;2023-03-15T13:56:27;100348.63;;;8.20;65.11
41862;BME280;27537;57.134;-2.136;2023-03-15T13:59:04;100311.41;;;7.90;65.70
41862;BME280;27537;57.134;-2.136;2023-03-15T14:01:39;100303.38;;;7.96;66.47
41862;BME280;27537;57.134;-2.136;2023-03-15T14:04:14;100312.72;;;7.76;69.28
41862;BME280;27537;57.134;-2.136;2023-03-15T14:06:42;100331.22;;;7.95;71.13
41862;BME280;27537;57.134;-2.136;2023-03-15T14:09:23;100329.13;;;8.05;74.30
41862;BME280;27537;57.134;-2.136;2023-03-15T14:12:05;100318.06;;;7.72;79.85
41862;BME280;27537;57.134;-2.136;2023-03-15T14:14:47;100344.34;;;7.92;86.30